createdAt,value
2018-06-23T00:00:06.143Z,0
2018-06-23T00:01:05.697Z,0
2018-06-23T00:02:05.656Z,0
2018-06-23T00:03:05.926Z,0
2018-06-23T00:04:05.939Z,0
2018-06-23T00:05:05.729Z,0
2018-06-23T00:06:06.274Z,0
2018-06-23T00:07:06.264Z,0
2018-06-23T00:08:05.767Z,0
2018-06-23T00:09:05.545Z,0
2018-06-23T00:10:06.057Z,0
2018-06-23T00:11:06.323Z,0
2018-06-23T00:12:06.079Z,0
2018-06-23T00:13:05.861Z,0
2018-06-23T00:14:05.855Z,0
2018-06-23T00:15:06.378Z,0
2018-06-23T00:16:05.890Z,0
2018-06-23T00:17:06.159Z,0
2018-06-23T00:18:06.414Z,0
2018-06-23T00:19:06.436Z,0
2018-06-23T00:20:06.423Z,0
2018-06-23T00:21:05.930Z,0
2018-06-23T00:22:06.229Z,0
2018-06-23T00:23:06.209Z,0
2018-06-23T00:24:06.217Z,0
2018-06-23T00:25:05.980Z,0
2018-06-23T00:26:06.277Z,0
2018-06-23T00:27:06.259Z,0
2018-06-23T00:28:06.034Z,0
2018-06-23T00:29:06.299Z,0
2018-06-23T00:30:06.579Z,0
2018-06-23T00:31:06.325Z,0
2018-06-23T00:32:06.600Z,0
2018-06-23T00:33:06.361Z,0
2018-06-23T00:34:05.866Z,0
2018-06-23T00:35:06.136Z,0
2018-06-23T00:36:06.422Z,0
2018-06-23T00:37:06.675Z,0
2018-06-23T00:38:06.431Z,0
2018-06-23T00:39:06.697Z,0
2018-06-23T00:40:06.459Z,0
2018-06-23T00:41:06.225Z,0
2018-06-23T00:42:06.749Z,0
2018-06-23T00:43:06.745Z,0
2018-06-23T00:44:06.761Z,0
2018-06-23T00:45:06.535Z,0
2018-06-23T00:46:06.534Z,0
2018-06-23T00:47:06.557Z,0
2018-06-23T00:48:06.838Z,0
2018-06-23T00:49:06.822Z,0
2018-06-23T00:50:06.349Z,0
2018-06-23T00:51:06.095Z,0
2018-06-23T00:52:06.115Z,0
2018-06-23T00:53:06.624Z,0
2018-06-23T00:54:06.647Z,0
2018-06-23T00:55:06.910Z,0
2018-06-23T00:56:06.424Z,0
2018-06-23T00:57:06.696Z,0
2018-06-23T00:58:06.945Z,0
2018-06-23T00:59:06.718Z,0
2018-06-23T01:00:06.971Z,0
2018-06-23T01:01:06.483Z,0
2018-06-23T01:02:06.760Z,0
2018-06-23T01:03:06.761Z,0
2018-06-23T01:04:06.527Z,0
2018-06-23T01:05:06.296Z,0
2018-06-23T01:06:06.301Z,0
2018-06-23T01:07:06.834Z,0
2018-06-23T01:08:06.587Z,0
2018-06-23T01:09:06.596Z,0
2018-06-23T01:10:07.133Z,0
2018-06-23T01:11:06.938Z,0
2018-06-23T01:12:06.901Z,0
2018-06-23T01:13:06.918Z,0
2018-06-23T01:14:06.925Z,0
2018-06-23T01:15:07.189Z,0
2018-06-23T01:16:06.956Z,0
2018-06-23T01:17:06.957Z,0
2018-06-23T01:19:06.737Z,0
2018-06-23T01:20:06.751Z,0
2018-06-23T01:21:07.022Z,0
2018-06-23T01:22:07.040Z,0
2018-06-23T01:23:07.296Z,0
2018-06-23T01:24:06.824Z,0
2018-06-23T01:25:07.073Z,0
2018-06-23T01:26:06.840Z,0
2018-06-23T01:27:06.858Z,0
2018-06-23T01:28:07.377Z,0
2018-06-23T01:29:07.114Z,0
2018-06-23T01:30:07.374Z,0
2018-06-23T01:31:06.886Z,0
2018-06-23T01:32:07.413Z,0
2018-06-23T01:33:06.929Z,0
2018-06-23T01:34:07.434Z,0
2018-06-23T01:35:07.456Z,0
2018-06-23T01:36:07.210Z,0
2018-06-23T01:37:07.230Z,0
2018-06-23T01:38:07.236Z,0
2018-06-23T01:39:07.519Z,0
2018-06-23T01:40:07.284Z,0
2018-06-23T01:41:06.785Z,0
2018-06-23T01:42:06.566Z,0
2018-06-23T01:43:07.070Z,0
2018-06-23T01:44:07.582Z,0
2018-06-23T01:45:07.607Z,0
2018-06-23T01:46:07.373Z,0
2018-06-23T01:47:07.398Z,0
2018-06-23T01:48:07.387Z,0
2018-06-23T01:49:06.882Z,0
2018-06-23T01:50:07.654Z,0
2018-06-23T01:51:07.191Z,0
2018-06-23T01:52:07.178Z,0
2018-06-23T01:53:07.446Z,0
2018-06-23T01:54:07.722Z,0
2018-06-23T01:55:07.477Z,0
2018-06-23T01:56:07.755Z,0
2018-06-23T01:57:07.500Z,0
2018-06-23T01:58:07.505Z,0
2018-06-23T01:59:07.776Z,0
2018-06-23T02:00:07.559Z,0
2018-06-23T02:01:07.587Z,0
2018-06-23T02:02:07.562Z,0
2018-06-23T02:03:07.580Z,0
2018-06-23T02:04:07.345Z,0
2018-06-23T02:05:07.363Z,0
2018-06-23T02:06:07.627Z,0
2018-06-23T02:07:07.910Z,0
2018-06-23T02:08:07.972Z,0
2018-06-23T02:09:07.423Z,0
2018-06-23T02:10:07.404Z,0
2018-06-23T02:11:07.668Z,0
2018-06-23T02:12:07.688Z,0
2018-06-23T02:13:07.220Z,0
2018-06-23T02:14:07.744Z,0
2018-06-23T02:15:07.495Z,0
2018-06-23T02:16:08.021Z,0
2018-06-23T02:17:07.796Z,0
2018-06-23T02:18:07.791Z,0
2018-06-23T02:19:08.072Z,0
2018-06-23T02:20:07.308Z,0
2018-06-23T02:21:08.104Z,0
2018-06-23T02:22:07.855Z,0
2018-06-23T02:23:07.869Z,0
2018-06-23T02:24:08.128Z,0
2018-06-23T02:25:07.887Z,0
2018-06-23T02:26:07.911Z,0
2018-06-23T02:27:07.909Z,0
2018-06-23T02:28:07.973Z,0
2018-06-23T02:29:07.930Z,0
2018-06-23T02:30:08.206Z,0
2018-06-23T02:31:07.970Z,0
2018-06-23T02:32:08.223Z,0
2018-06-23T02:33:08.237Z,0
2018-06-23T02:34:07.993Z,0
2018-06-23T02:35:08.270Z,0
2018-06-23T02:36:08.037Z,0
2018-06-23T02:37:08.351Z,0
2018-06-23T02:38:08.341Z,0
2018-06-23T02:39:08.334Z,0
2018-06-23T02:40:08.371Z,0
2018-06-23T02:41:08.348Z,0
2018-06-23T02:42:07.889Z,0
2018-06-23T02:43:07.861Z,0
2018-06-23T02:44:08.141Z,0
2018-06-23T02:45:08.423Z,0
2018-06-23T02:46:08.167Z,0
2018-06-23T02:47:07.933Z,0
2018-06-23T02:48:08.258Z,0
2018-06-23T02:49:08.208Z,0
2018-06-23T02:50:08.218Z,0
2018-06-23T02:51:08.484Z,0
2018-06-23T02:52:08.498Z,0
2018-06-23T02:53:08.276Z,0
2018-06-23T02:54:08.269Z,0
2018-06-23T02:55:08.281Z,0
2018-06-23T02:56:08.038Z,0
2018-06-23T02:57:08.346Z,0
2018-06-23T02:58:08.075Z,0
2018-06-23T02:59:08.359Z,0
2018-06-23T03:00:08.610Z,0
2018-06-23T03:01:08.643Z,0
2018-06-23T03:02:08.675Z,0
2018-06-23T03:03:08.671Z,0
2018-06-23T03:04:08.162Z,0
2018-06-23T03:05:08.434Z,0
2018-06-23T03:06:08.448Z,0
2018-06-23T03:07:08.477Z,0
2018-06-23T03:08:08.749Z,0
2018-06-23T03:09:08.473Z,5
2018-06-23T03:10:08.519Z,5
2018-06-23T03:11:08.512Z,5
2018-06-23T03:12:08.771Z,5
2018-06-23T03:13:08.530Z,5
2018-06-23T03:14:08.607Z,5
2018-06-23T03:15:08.612Z,5
2018-06-23T03:16:08.331Z,5
2018-06-23T03:17:08.582Z,5
2018-06-23T03:18:08.599Z,10
2018-06-23T03:19:08.876Z,10
2018-06-23T03:20:08.620Z,10
2018-06-23T03:21:08.135Z,10
2018-06-23T03:22:08.905Z,10
2018-06-23T03:23:08.407Z,10
2018-06-23T03:24:08.694Z,10
2018-06-23T03:25:08.190Z,15
2018-06-23T03:26:08.440Z,15
2018-06-23T03:27:08.493Z,15
2018-06-23T03:28:08.470Z,15
2018-06-23T03:29:08.950Z,15
2018-06-23T03:30:09.001Z,15
2018-06-23T03:31:08.773Z,15
2018-06-23T03:32:08.534Z,20
2018-06-23T03:33:08.785Z,20
2018-06-23T03:34:08.807Z,20
2018-06-23T03:35:08.572Z,20
2018-06-23T03:36:09.080Z,20
2018-06-23T03:37:08.845Z,25
2018-06-23T03:38:08.868Z,25
2018-06-23T03:39:08.662Z,25
2018-06-23T03:40:09.149Z,25
2018-06-23T03:41:08.905Z,25
2018-06-23T03:42:09.177Z,30
2018-06-23T03:43:08.669Z,30
2018-06-23T03:44:08.681Z,30
2018-06-23T03:45:08.697Z,30
2018-06-23T03:46:08.209Z,30
2018-06-23T03:47:08.981Z,35
2018-06-23T03:48:09.000Z,35
2018-06-23T03:49:09.009Z,35
2018-06-23T03:50:09.254Z,35
2018-06-23T03:51:08.513Z,40
2018-06-23T03:52:09.053Z,40
2018-06-23T03:53:08.790Z,40
2018-06-23T03:54:09.308Z,40
2018-06-23T03:55:08.569Z,45
2018-06-23T03:56:09.328Z,45
2018-06-23T03:57:08.855Z,45
2018-06-23T03:58:09.115Z,50
2018-06-23T03:59:09.372Z,50
2018-06-23T04:00:09.386Z,55
2018-06-23T04:01:09.181Z,55
2018-06-23T04:02:08.677Z,55
2018-06-23T04:03:09.202Z,55
2018-06-23T04:04:09.473Z,55
2018-06-23T04:05:09.489Z,60
2018-06-23T04:06:09.240Z,60
2018-06-23T04:07:09.253Z,65
2018-06-23T04:08:09.254Z,65
2018-06-23T04:09:09.017Z,65
2018-06-23T04:10:08.781Z,65
2018-06-23T04:11:09.322Z,70
2018-06-23T04:12:09.588Z,75
2018-06-23T04:13:09.580Z,75
2018-06-23T04:14:09.615Z,75
2018-06-23T04:15:09.353Z,75
2018-06-23T04:16:09.369Z,75
2018-06-23T04:17:09.123Z,80
2018-06-23T04:18:09.650Z,80
2018-06-23T04:19:09.407Z,80
2018-06-23T04:20:09.422Z,85
2018-06-23T04:21:09.432Z,85
2018-06-23T04:22:09.189Z,85
2018-06-23T04:23:09.451Z,85
2018-06-23T04:24:09.215Z,85
2018-06-23T04:25:08.976Z,85
2018-06-23T04:26:08.984Z,85
2018-06-23T04:27:09.757Z,80
2018-06-23T04:28:09.545Z,80
2018-06-23T04:29:09.606Z,85
2018-06-23T04:30:09.295Z,85
2018-06-23T04:31:09.830Z,90
2018-06-23T04:32:09.821Z,100
2018-06-23T04:33:09.344Z,100
2018-06-23T04:34:09.609Z,105
2018-06-23T04:35:09.364Z,105
2018-06-23T04:36:09.370Z,105
2018-06-23T04:37:09.901Z,105
2018-06-23T04:38:09.653Z,105
2018-06-23T04:39:09.666Z,105
2018-06-23T04:40:09.681Z,110
2018-06-23T04:41:09.720Z,110
2018-06-23T04:42:09.692Z,110
2018-06-23T04:43:09.964Z,100
2018-06-23T04:44:09.460Z,95
2018-06-23T04:45:09.973Z,90
2018-06-23T04:46:09.771Z,95
2018-06-23T04:47:09.769Z,100
2018-06-23T04:48:10.022Z,115
2018-06-23T04:49:09.811Z,115
2018-06-23T04:50:09.820Z,105
2018-06-23T04:51:09.838Z,115
2018-06-23T04:52:09.860Z,115
2018-06-23T04:53:10.122Z,120
2018-06-23T04:54:09.883Z,105
2018-06-23T04:55:09.640Z,120
2018-06-23T04:56:09.903Z,125
2018-06-23T04:57:09.937Z,130
2018-06-23T04:58:10.017Z,135
2018-06-23T04:59:09.945Z,135
2018-06-23T05:00:09.711Z,135
2018-06-23T05:01:09.970Z,140
2018-06-23T05:02:10.240Z,140
2018-06-23T05:03:10.252Z,130
2018-06-23T05:04:10.031Z,140
2018-06-23T05:05:10.276Z,140
2018-06-23T05:06:09.782Z,140
2018-06-23T05:07:10.320Z,140
2018-06-23T05:08:09.829Z,140
2018-06-23T05:09:10.095Z,145
2018-06-23T05:10:09.844Z,145
2018-06-23T05:11:10.100Z,145
2018-06-23T05:12:10.113Z,150
2018-06-23T05:13:09.869Z,145
2018-06-23T05:14:10.142Z,155
2018-06-23T05:15:10.405Z,135
2018-06-23T05:16:10.168Z,140
2018-06-23T05:17:10.429Z,155
2018-06-23T05:18:10.197Z,140
2018-06-23T05:19:09.966Z,130
2018-06-23T05:20:10.413Z,125
2018-06-23T05:21:09.749Z,125
2018-06-23T05:22:09.995Z,130
2018-06-23T05:23:10.527Z,135
2018-06-23T05:24:10.279Z,155
2018-06-23T05:25:10.034Z,155
2018-06-23T05:26:10.462Z,145
2018-06-23T05:27:10.308Z,155
2018-06-23T05:28:10.582Z,150
2018-06-23T05:29:10.583Z,165
2018-06-23T05:30:10.119Z,160
2018-06-23T05:31:10.620Z,160
2018-06-23T05:32:10.653Z,160
2018-06-23T05:33:10.405Z,165
2018-06-23T05:34:10.175Z,165
2018-06-23T05:35:10.196Z,155
2018-06-23T05:36:10.711Z,165
2018-06-23T05:37:10.466Z,165
2018-06-23T05:38:09.976Z,165
2018-06-23T05:39:10.504Z,165
2018-06-23T05:40:10.516Z,170
2018-06-23T05:41:10.269Z,175
2018-06-23T05:42:10.785Z,170
2018-06-23T05:43:10.555Z,170
2018-06-23T05:44:10.566Z,170
2018-06-23T05:45:10.833Z,170
2018-06-23T05:46:10.616Z,170
2018-06-23T05:47:10.861Z,175
2018-06-23T05:48:10.369Z,175
2018-06-23T05:49:10.636Z,175
2018-06-23T05:50:10.902Z,175
2018-06-23T05:51:10.455Z,180
2018-06-23T05:52:10.691Z,180
2018-06-23T05:53:10.437Z,180
2018-06-23T05:54:10.445Z,180
2018-06-23T05:55:10.725Z,180
2018-06-23T05:56:10.981Z,180
2018-06-23T05:57:10.491Z,185
2018-06-23T05:58:10.504Z,185
2018-06-23T05:59:11.024Z,185
2018-06-23T06:00:10.796Z,185
2018-06-23T06:01:10.797Z,185
2018-06-23T06:02:11.068Z,185
2018-06-23T06:03:10.587Z,185
2018-06-23T06:04:10.332Z,190
2018-06-23T06:05:10.856Z,185
2018-06-23T06:06:10.865Z,190
2018-06-23T06:07:11.699Z,190
2018-06-23T06:08:10.647Z,190
2018-06-23T06:09:11.173Z,195
2018-06-23T06:10:10.671Z,195
2018-06-23T06:11:10.456Z,195
2018-06-23T06:12:10.702Z,195
2018-06-23T06:13:10.987Z,200
2018-06-23T06:14:10.740Z,200
2018-06-23T06:15:10.810Z,200
2018-06-23T06:16:11.059Z,200
2018-06-23T06:17:10.535Z,200
2018-06-23T06:18:11.306Z,200
2018-06-23T06:19:10.809Z,200
2018-06-23T06:20:11.088Z,200
2018-06-23T06:21:11.355Z,200
2018-06-23T06:22:10.858Z,205
2018-06-23T06:23:11.129Z,205
2018-06-23T06:24:11.138Z,210
2018-06-23T06:25:11.160Z,215
2018-06-23T06:26:11.166Z,210
2018-06-23T06:27:10.944Z,215
2018-06-23T06:28:11.199Z,210
2018-06-23T06:29:10.954Z,220
2018-06-23T06:30:11.255Z,220
2018-06-23T06:31:11.502Z,220
2018-06-23T06:32:10.992Z,225
2018-06-23T06:33:11.490Z,235
2018-06-23T06:34:11.011Z,235
2018-06-23T06:35:10.774Z,240
2018-06-23T06:36:10.804Z,245
2018-06-23T06:37:11.557Z,250
2018-06-23T06:38:11.075Z,255
2018-06-23T06:39:11.079Z,260
2018-06-23T06:40:11.371Z,260
2018-06-23T06:41:11.138Z,250
2018-06-23T06:42:11.649Z,215
2018-06-23T06:43:11.650Z,220
2018-06-23T06:44:11.659Z,215
2018-06-23T06:45:11.162Z,215
2018-06-23T06:46:11.189Z,285
2018-06-23T06:47:11.198Z,265
2018-06-23T06:48:11.464Z,260
2018-06-23T06:49:11.238Z,265
2018-06-23T06:50:11.500Z,260
2018-06-23T06:51:11.257Z,265
2018-06-23T06:52:11.279Z,270
2018-06-23T06:53:11.577Z,270
2018-06-23T06:54:11.577Z,280
2018-06-23T06:55:11.859Z,205
2018-06-23T06:56:11.100Z,185
2018-06-23T06:57:12.158Z,280
2018-06-23T06:58:11.889Z,275
2018-06-23T06:59:11.901Z,275
2018-06-23T07:00:11.170Z,280
2018-06-23T07:01:11.435Z,280
2018-06-23T07:02:11.478Z,285
2018-06-23T07:03:11.219Z,290
2018-06-23T07:04:11.741Z,290
2018-06-23T07:05:12.014Z,290
2018-06-23T07:06:11.766Z,300
2018-06-23T07:07:11.780Z,305
2018-06-23T07:08:11.798Z,310
2018-06-23T07:09:12.068Z,305
2018-06-23T07:10:11.826Z,310
2018-06-23T07:11:11.855Z,325
2018-06-23T07:12:11.869Z,330
2018-06-23T07:13:11.884Z,335
2018-06-23T07:14:11.648Z,340
2018-06-23T07:15:12.226Z,350
2018-06-23T07:16:11.922Z,365
2018-06-23T07:17:12.188Z,350
2018-06-23T07:18:12.207Z,375
2018-06-23T07:19:11.717Z,375
2018-06-23T07:20:11.726Z,385
2018-06-23T07:21:12.258Z,395
2018-06-23T07:22:11.758Z,365
2018-06-23T07:23:11.529Z,350
2018-06-23T07:24:12.243Z,315
2018-06-23T07:25:12.315Z,285
2018-06-23T07:26:11.798Z,310
2018-06-23T07:27:12.082Z,305
2018-06-23T07:28:12.093Z,300
2018-06-23T07:29:12.359Z,270
2018-06-23T07:30:12.119Z,255
2018-06-23T07:31:12.133Z,250
2018-06-23T07:32:12.402Z,245
2018-06-23T07:33:12.196Z,245
2018-06-23T07:34:12.222Z,245
2018-06-23T07:35:12.864Z,245
2018-06-23T07:36:12.507Z,245
2018-06-23T07:37:12.278Z,250
2018-06-23T07:38:12.293Z,240
2018-06-23T07:39:12.050Z,245
2018-06-23T07:40:11.817Z,255
2018-06-23T07:41:12.085Z,280
2018-06-23T07:42:12.380Z,285
2018-06-23T07:43:12.114Z,275
2018-06-23T07:44:12.130Z,290
2018-06-23T07:45:12.400Z,300
2018-06-23T07:46:12.178Z,225
2018-06-23T07:47:12.180Z,245
2018-06-23T07:48:12.227Z,285
2018-06-23T07:49:12.720Z,300
2018-06-23T07:50:12.501Z,300
2018-06-23T07:51:12.757Z,295
2018-06-23T07:52:12.799Z,295
2018-06-23T07:53:12.799Z,295
2018-06-23T07:54:12.548Z,300
2018-06-23T07:55:12.313Z,310
2018-06-23T07:56:12.513Z,220
2018-06-23T07:57:12.855Z,190
2018-06-23T07:58:12.891Z,305
2018-06-23T07:59:12.635Z,185
2018-06-23T08:00:12.914Z,180
2018-06-23T08:01:12.935Z,185
2018-06-23T08:02:12.960Z,185
2018-06-23T08:03:12.969Z,190
2018-06-23T08:04:12.977Z,200
2018-06-23T08:05:12.485Z,205
2018-06-23T08:06:12.754Z,210
2018-06-23T08:07:13.036Z,320
2018-06-23T08:08:12.795Z,240
2018-06-23T08:09:13.074Z,190
2018-06-23T08:10:12.824Z,185
2018-06-23T08:11:12.843Z,185
2018-06-23T08:12:12.854Z,185
2018-06-23T08:13:12.624Z,320
2018-06-23T08:14:13.146Z,205
2018-06-23T08:15:12.946Z,235
2018-06-23T08:16:12.937Z,325
2018-06-23T08:17:12.948Z,325
2018-06-23T08:18:12.710Z,270
2018-06-23T08:19:12.995Z,285
2018-06-23T08:20:13.263Z,285
2018-06-23T08:21:13.029Z,315
2018-06-23T08:22:13.070Z,180
2018-06-23T08:23:13.320Z,300
2018-06-23T08:24:13.078Z,290
2018-06-23T08:25:12.851Z,295
2018-06-23T08:26:12.893Z,165
2018-06-23T08:27:13.392Z,160
2018-06-23T08:28:13.159Z,165
2018-06-23T08:29:12.926Z,205
2018-06-23T08:30:13.451Z,325
2018-06-23T08:31:13.468Z,335
2018-06-23T08:32:13.498Z,340
2018-06-23T08:33:13.503Z,350
2018-06-23T08:34:13.023Z,355
2018-06-23T08:35:13.287Z,360
2018-06-23T08:36:13.043Z,340
2018-06-23T08:37:13.318Z,325
2018-06-23T08:38:13.347Z,360
2018-06-23T08:39:13.360Z,345
2018-06-23T08:40:13.145Z,200
2018-06-23T08:41:13.400Z,200
2018-06-23T08:42:13.418Z,205
2018-06-23T08:43:13.428Z,260
2018-06-23T08:44:13.715Z,340
2018-06-23T08:45:13.211Z,370
2018-06-23T08:46:13.718Z,355
2018-06-23T08:47:13.488Z,355
2018-06-23T08:48:13.823Z,360
2018-06-23T08:49:13.742Z,275
2018-06-23T08:50:13.533Z,350
2018-06-23T08:51:13.568Z,250
2018-06-23T08:52:13.566Z,365
2018-06-23T08:53:13.589Z,355
2018-06-23T08:54:13.633Z,255
2018-06-23T08:55:13.909Z,285
2018-06-23T08:56:12.914Z,225
2018-06-23T08:57:13.440Z,220
2018-06-23T08:58:13.718Z,220
2018-06-23T08:59:13.743Z,355
2018-06-23T09:00:14.016Z,390
2018-06-23T09:01:14.035Z,385
2018-06-23T09:02:13.544Z,215
2018-06-23T09:03:13.802Z,220
2018-06-23T09:04:14.108Z,225
2018-06-23T09:05:13.916Z,235
2018-06-23T09:06:14.106Z,225
2018-06-23T09:07:13.877Z,225
2018-06-23T09:08:13.921Z,230
2018-06-23T09:09:14.180Z,385
2018-06-23T09:10:14.196Z,230
2018-06-23T09:11:13.964Z,390
2018-06-23T09:12:13.731Z,370
2018-06-23T09:13:14.013Z,370
2018-06-23T09:14:14.036Z,380
2018-06-23T09:15:14.303Z,390
2018-06-23T09:16:14.320Z,405
2018-06-23T09:17:13.826Z,440
2018-06-23T09:18:14.107Z,445
2018-06-23T09:19:14.397Z,460
2018-06-23T09:20:14.156Z,450
2018-06-23T09:21:14.161Z,450
2018-06-23T09:22:13.442Z,425
2018-06-23T09:23:14.458Z,450
2018-06-23T09:24:14.219Z,275
2018-06-23T09:25:14.265Z,265
2018-06-23T09:26:14.536Z,265
2018-06-23T09:27:14.283Z,250
2018-06-23T09:28:14.297Z,245
2018-06-23T09:29:14.075Z,245
2018-06-23T09:30:13.836Z,245
2018-06-23T09:31:14.111Z,245
2018-06-23T09:32:14.388Z,240
2018-06-23T09:33:14.653Z,235
2018-06-23T09:34:14.432Z,230
2018-06-23T09:35:14.446Z,235
2018-06-23T09:36:14.700Z,240
2018-06-23T09:37:14.480Z,245
2018-06-23T09:38:14.746Z,260
2018-06-23T09:39:14.528Z,270
2018-06-23T09:40:14.782Z,280
2018-06-23T09:41:14.799Z,280
2018-06-23T09:42:14.418Z,290
2018-06-23T09:43:14.081Z,375
2018-06-23T09:44:14.866Z,280
2018-06-23T09:45:14.887Z,310
2018-06-23T09:46:15.323Z,410
2018-06-23T09:47:14.425Z,385
2018-06-23T09:48:14.703Z,250
2018-06-23T09:49:14.725Z,245
2018-06-23T09:50:14.487Z,240
2018-06-23T09:51:14.505Z,235
2018-06-23T09:52:14.520Z,230
2018-06-23T09:53:14.554Z,230
2018-06-23T09:54:15.075Z,230
2018-06-23T09:55:14.324Z,240
2018-06-23T09:56:14.861Z,255
2018-06-23T09:57:14.880Z,260
2018-06-23T09:58:14.896Z,270
2018-06-23T09:59:15.170Z,450
2018-06-23T10:00:14.738Z,445
2018-06-23T10:01:14.958Z,450
2018-06-23T10:02:14.975Z,440
2018-06-23T10:03:15.246Z,260
2018-06-23T10:04:15.015Z,240
2018-06-23T10:05:15.057Z,240
2018-06-23T10:06:15.062Z,240
2018-06-23T10:07:14.927Z,240
2018-06-23T10:08:15.106Z,240
2018-06-23T10:09:15.123Z,250
2018-06-23T10:10:14.905Z,255
2018-06-23T10:11:14.906Z,275
2018-06-23T10:12:14.926Z,370
2018-06-23T10:13:14.947Z,465
2018-06-23T10:14:15.004Z,510
2018-06-23T10:15:15.241Z,525
2018-06-23T10:16:15.529Z,525
2018-06-23T10:17:15.525Z,495
2018-06-23T10:18:15.311Z,485
2018-06-23T10:19:15.319Z,375
2018-06-23T10:20:15.582Z,285
2018-06-23T10:21:15.364Z,280
2018-06-23T10:22:15.636Z,290
2018-06-23T10:23:15.403Z,295
2018-06-23T10:24:15.711Z,305
2018-06-23T10:25:15.484Z,440
2018-06-23T10:26:15.495Z,420
2018-06-23T10:27:15.776Z,450
2018-06-23T10:28:15.784Z,590
2018-06-23T10:29:15.559Z,590
2018-06-23T10:30:15.580Z,590
2018-06-23T10:31:15.860Z,595
2018-06-23T10:32:15.875Z,595
2018-06-23T10:33:15.677Z,385
2018-06-23T10:34:15.930Z,340
2018-06-23T10:35:15.727Z,325
2018-06-23T10:36:15.970Z,315
2018-06-23T10:37:15.755Z,310
2018-06-23T10:38:16.173Z,300
2018-06-23T10:39:16.050Z,290
2018-06-23T10:40:15.991Z,320
2018-06-23T10:41:15.330Z,300
2018-06-23T10:42:15.626Z,315
2018-06-23T10:43:15.893Z,375
2018-06-23T10:44:15.653Z,590
2018-06-23T10:45:15.937Z,605
2018-06-23T10:46:16.242Z,650
2018-06-23T10:47:16.231Z,535
2018-06-23T10:48:16.238Z,680
2018-06-23T10:49:16.269Z,590
2018-06-23T10:50:15.791Z,565
2018-06-23T10:51:16.065Z,465
2018-06-23T10:52:16.085Z,450
2018-06-23T10:53:16.371Z,445
2018-06-23T10:54:16.145Z,455
2018-06-23T10:55:16.189Z,470
2018-06-23T10:56:16.199Z,490
2018-06-23T10:57:16.230Z,500
2018-06-23T10:58:16.276Z,515
2018-06-23T10:59:16.275Z,595
2018-06-23T11:00:16.303Z,640
2018-06-23T11:01:16.575Z,600
2018-06-23T11:02:16.377Z,570
2018-06-23T11:03:16.660Z,570
2018-06-23T11:04:16.427Z,565
2018-06-23T11:05:16.489Z,590
2018-06-23T11:06:16.464Z,580
2018-06-23T11:07:16.498Z,545
2018-06-23T11:08:16.519Z,505
2018-06-23T11:09:16.546Z,460
2018-06-23T11:10:16.321Z,400
2018-06-23T11:11:16.608Z,360
2018-06-23T11:12:16.889Z,305
2018-06-23T11:13:16.643Z,290
2018-06-23T11:14:16.676Z,275
2018-06-23T11:15:16.943Z,270
2018-06-23T11:16:16.722Z,275
2018-06-23T11:17:16.721Z,285
2018-06-23T11:18:16.743Z,290
2018-06-23T11:19:16.280Z,295
2018-06-23T11:20:17.063Z,310
2018-06-23T11:21:16.563Z,325
2018-06-23T11:22:16.854Z,340
2018-06-23T11:23:16.871Z,365
2018-06-23T11:24:17.336Z,380
2018-06-23T11:25:16.921Z,385
2018-06-23T11:26:16.939Z,395
2018-06-23T11:27:17.259Z,410
2018-06-23T11:28:17.284Z,420
2018-06-23T11:29:17.047Z,445
2018-06-23T11:30:17.091Z,455
2018-06-23T11:31:17.107Z,470
2018-06-23T11:32:17.726Z,470
2018-06-23T11:33:17.147Z,465
2018-06-23T11:34:17.169Z,450
2018-06-23T11:35:16.948Z,445
2018-06-23T11:36:16.712Z,455
2018-06-23T11:37:16.738Z,465
2018-06-23T11:38:17.523Z,465
2018-06-23T11:39:17.303Z,450
2018-06-23T11:40:17.570Z,430
2018-06-23T11:41:17.493Z,410
2018-06-23T11:42:17.612Z,395
2018-06-23T11:43:17.639Z,380
2018-06-23T11:44:17.676Z,575
2018-06-23T11:45:17.444Z,630
2018-06-23T11:46:17.209Z,620
2018-06-23T11:47:17.233Z,610
2018-06-23T11:48:17.515Z,610
2018-06-23T11:49:17.293Z,585
2018-06-23T11:50:17.818Z,575
2018-06-23T11:51:17.583Z,570
2018-06-23T11:52:17.416Z,570
2018-06-23T11:53:18.168Z,565
2018-06-23T11:54:17.683Z,580
2018-06-23T11:55:17.698Z,595
2018-06-23T11:56:17.952Z,720
2018-06-23T11:57:17.481Z,735
2018-06-23T11:58:17.749Z,770
2018-06-23T11:59:17.796Z,805
2018-06-23T12:00:17.803Z,650
2018-06-23T12:01:17.852Z,530
2018-06-23T12:02:18.131Z,540
2018-06-23T12:03:18.686Z,555
2018-06-23T12:04:17.953Z,560
2018-06-23T12:05:17.723Z,550
2018-06-23T12:06:17.730Z,545
2018-06-23T12:07:18.010Z,545
2018-06-23T12:08:17.792Z,550
2018-06-23T12:09:18.589Z,575
2018-06-23T12:10:18.337Z,580
2018-06-23T12:11:18.373Z,610
2018-06-23T12:12:18.401Z,855
2018-06-23T12:13:18.219Z,695
2018-06-23T12:14:18.195Z,735
2018-06-23T12:15:18.229Z,675
2018-06-23T12:16:18.010Z,875
2018-06-23T12:17:18.271Z,590
2018-06-23T12:18:18.357Z,590
2018-06-23T12:19:18.068Z,600
2018-06-23T12:20:18.653Z,630
2018-06-23T12:21:18.629Z,650
2018-06-23T12:22:18.654Z,590
2018-06-23T12:23:18.437Z,565
2018-06-23T12:24:18.713Z,600
2018-06-23T12:25:18.276Z,590
2018-06-23T12:26:18.770Z,565
2018-06-23T12:27:18.775Z,565
2018-06-23T12:28:18.555Z,595
2018-06-23T12:29:18.820Z,615
2018-06-23T12:30:18.715Z,555
2018-06-23T12:31:18.630Z,590
2018-06-23T12:32:18.651Z,775
2018-06-23T12:33:18.698Z,780
2018-06-23T12:34:18.975Z,575
2018-06-23T12:35:18.449Z,595
2018-06-23T12:36:18.726Z,555
2018-06-23T12:37:19.001Z,590
2018-06-23T12:38:18.767Z,620
2018-06-23T12:39:19.047Z,905
2018-06-23T12:40:19.268Z,685
2018-06-23T12:41:19.105Z,955
2018-06-23T12:42:19.127Z,990
2018-06-23T12:43:19.155Z,965
2018-06-23T12:44:18.952Z,850
2018-06-23T12:45:18.722Z,960
2018-06-23T12:46:18.745Z,960
2018-06-23T12:47:19.262Z,840
2018-06-23T12:48:19.048Z,690
2018-06-23T12:49:19.061Z,1035
2018-06-23T12:50:19.358Z,1015
2018-06-23T12:51:19.113Z,945
2018-06-23T12:52:19.421Z,910
2018-06-23T12:53:19.169Z,1005
2018-06-23T12:54:19.443Z,1060
2018-06-23T12:55:19.230Z,595
2018-06-23T12:56:19.514Z,555
2018-06-23T12:57:19.276Z,530
2018-06-23T12:58:19.300Z,525
2018-06-23T12:59:19.335Z,630
2018-06-23T13:00:19.368Z,1030
2018-06-23T13:01:19.634Z,595
2018-06-23T13:02:19.409Z,570
2018-06-23T13:03:19.187Z,575
2018-06-23T13:04:19.209Z,690
2018-06-23T13:05:19.504Z,675
2018-06-23T13:06:19.521Z,695
2018-06-23T13:07:19.823Z,685
2018-06-23T13:08:19.313Z,690
2018-06-23T13:09:19.848Z,795
2018-06-23T13:10:19.893Z,950
2018-06-23T13:11:19.902Z,845
2018-06-23T13:12:19.944Z,1415
2018-06-23T13:13:19.699Z,1090
2018-06-23T13:14:20.030Z,1295
2018-06-23T13:15:19.533Z,960
2018-06-23T13:16:19.520Z,735
2018-06-23T13:17:20.060Z,740
2018-06-23T13:18:20.083Z,785
2018-06-23T13:19:19.600Z,910
2018-06-23T13:20:19.877Z,1035
2018-06-23T13:21:19.908Z,745
2018-06-23T13:22:20.294Z,735
2018-06-23T13:23:19.678Z,1125
2018-06-23T13:24:20.202Z,1060
2018-06-23T13:25:20.223Z,795
2018-06-23T13:26:20.282Z,635
2018-06-23T13:27:20.295Z,505
2018-06-23T13:28:20.329Z,485
2018-06-23T13:29:20.111Z,490
2018-06-23T13:30:20.136Z,1015
2018-06-23T13:31:19.901Z,1030
2018-06-23T13:32:20.525Z,1070
2018-06-23T13:33:20.461Z,1030
2018-06-23T13:34:20.227Z,520
2018-06-23T13:35:20.051Z,730
2018-06-23T13:36:20.279Z,475
2018-06-23T13:37:20.328Z,485
2018-06-23T13:38:20.334Z,585
2018-06-23T13:39:20.381Z,1510
2018-06-23T13:40:20.633Z,855
2018-06-23T13:41:20.639Z,1760
2018-06-23T13:42:20.413Z,1615
2018-06-23T13:43:20.687Z,1290
2018-06-23T13:44:20.483Z,1490
2018-06-23T13:45:20.487Z,1365
2018-06-23T13:46:20.767Z,1280
2018-06-23T13:47:20.287Z,1270
2018-06-23T13:48:20.065Z,1210
2018-06-23T13:49:20.836Z,850
2018-06-23T13:50:20.882Z,1130
2018-06-23T13:51:20.922Z,1075
2018-06-23T13:52:20.466Z,1265
2018-06-23T13:53:20.724Z,1220
2018-06-23T13:54:21.015Z,1310
2018-06-23T13:55:20.785Z,1160
2018-06-23T13:56:20.825Z,1145
2018-06-23T13:57:20.845Z,1420
2018-06-23T13:58:21.130Z,540
2018-06-23T13:59:21.147Z,475
2018-06-23T14:00:21.207Z,480
2018-06-23T14:01:20.981Z,475
2018-06-23T14:02:21.238Z,485